Blowing Sand Mountains, Nevada Weather observations

Data are for observation ending at time listed.
 Day   Time    Ave.   Ave.  Ave.  Vector   Max.   Stn.    Total    Solar   Ave.  
  of    of     Air    Rel.  Wind   Wind    Wind   Baro.  Precip.   Rad.    Soil  
Year   Day     Temp.  Hum.  Speed  Dir.    Gust   Pres.                    Temp. 
2017   (PST)    F      %     mph   deg.    mph     mb.     in.     W/m2     F   
------------------------------------------------------------------------------
  20    9:30   36.4    70   12.1   128     20.7    859.7     0.00      38     38.7
  20    9:40   36.1    72   10.9   124     16.2    859.4     0.00      62     38.7
  20    9:50   36.9    69   14.7   132     22.4    859.1     0.00      90     38.7
  20   10:00   37.8    66   15.2   138     22.3    858.9     0.00     109     38.7
  20   10:10   38.4    65   15.1   135     20.5    858.7     0.00     155     38.7
  20   10:20   39.2    63   14.8   140     25.5    858.5     0.00     222     38.7
  20   10:30   39.9    61   15.4   138     21.9    858.2     0.00     180     38.7
  20   10:40   40.2    59   17.8   146     27.0    858.0     0.00     157     38.7
  20   10:50   40.7    57   19.0   146     27.3    857.8     0.00     186     38.7
  20   11:00   41.0    56   18.8   147     27.2    857.6     0.00     196     38.7
  20   11:10   41.4    56   16.5   147     22.9    857.5     0.00     206     38.7
  20   11:20   41.7    56   15.4   138     20.5    857.4     0.00     212     38.7
  20   11:30   41.5    56   14.9   135     20.2    857.3     0.00     201     38.7
  20   11:40   41.7    56   14.2   139     20.2    857.3     0.00     157     38.7
  20   11:50   41.7    56   14.3   139     21.3    857.1     0.00     153     38.7
  20   12:00   41.9    55   14.9   143     20.5    857.0     0.00     154     38.7
  20   12:10   41.9    55   13.6   142     21.1    856.9     0.00     109     38.7
  20   12:20   42.0    56   12.3   149     25.5    856.8     0.00     100     38.7
  20   12:30   40.5    63   15.5   153     22.0    856.9     0.00      72     38.7
  20   12:40   38.7    70   13.3   160     22.7    857.0     0.00      63     38.7
  20   12:50   37.2    75   12.6   152     18.6    857.0     0.00      67     38.7
  20   13:00   36.2    80   10.8   162     15.1    856.9     0.00      81     38.7
  20   13:10   35.8    82    8.2   164     12.9    856.9     0.01      59     38.7
  20   13:20   35.0    84    6.5   190     10.8    857.1     0.00      34     38.7
  20   13:30   34.1    86    7.6   162     18.6    856.9     0.01      23     38.7
  20   13:40   32.7    87   15.7   142     27.8    855.9     0.03      40     38.7
  20   13:50   31.7    90   11.3   120     20.8    855.8     0.00      93     38.7
  20   14:00   32.5    90   10.7   133     15.3    855.7     0.00     342     38.7
  20   14:10   33.9    90   11.4   125     15.2    855.6     0.00     502     38.7
  20   14:20   35.6    88   12.8   148     18.5    855.6     0.00     467     38.7
  20   14:30   36.2    85   12.4   148     17.9    855.7     0.00     392     38.7
  20   14:40   35.2    88   10.2   159     15.9    855.8     0.00     128     38.7
  20   14:50   33.9    90   12.3   142     16.2    855.6     0.00     128     38.8
  20   15:00   34.8    91   11.3   145     16.1    855.7     0.00     323     38.8
  20   15:10   35.6    89   11.7   137     15.8    855.6     0.00     300     38.8
  20   15:20   36.0    86    9.3   131     14.2    855.7     0.00     274     38.8
  20   15:30   36.2    85    8.2   140     11.3    855.8     0.00     250     38.8
  20   15:40   35.8    86    7.5   164     10.3    855.9     0.00     109     38.9
  20   15:50   34.2    88    7.8   169     11.0    855.9     0.00      36     38.9
  20   16:00   33.6    90    7.6   155     10.5    855.9     0.00      53     38.9
  20   16:10   33.5    91    7.1   155     11.1    855.9     0.00      52     38.9
  20   16:20   33.7    91    7.4   136      9.9    856.1     0.00      83     38.9
  20   16:30   34.7    90    5.4   142      8.5    856.3     0.00     106     38.9
  20   16:40   35.6    88    4.8   145      8.0    856.2     0.00      97     38.9
  20   16:50   36.3    84    5.9   142     10.4    856.1     0.00      51     39.0
  20   17:00   36.0    79    8.6   156     14.0    856.1     0.00      11     39.0
  20   17:10   35.4    80    7.6   141     10.9    856.2     0.00       3     39.0
  20   17:20   34.6    81    6.5   152      9.8    856.1     0.00       1     39.0
  20   17:30   33.9    83    5.6   138      8.0    856.3     0.00       0     39.0
  20   17:40   33.4    84    5.1   132      7.7    856.6     0.00       0     39.0
  20   17:50   33.0    84    5.5   132      7.9    856.8     0.00       0     39.0
  20   18:00   32.4    85    4.3   110      7.2    856.9     0.00       0     39.1
  20   18:10   31.5    86    5.8   134      8.6    857.0     0.00       0     39.0
  20   18:20   30.9    88    5.8   152      8.3    857.0     0.00       0     39.1
  20   18:30   30.0    88    5.1   151      7.9    857.1     0.00       0     39.1
  20   18:40   28.8    90    1.7   131      4.8    857.2     0.00       0     39.1
  20   18:50   28.3    92    1.9    60      4.3    857.3     0.00       0     39.1
  20   19:00   28.2    93    0.0     0      0.0    857.4     0.00       0     39.1
  20   19:10   28.0    94    0.0     0      0.0    857.6     0.00       0     39.1
  20   19:20   28.1    96    0.2    90      3.4    857.7     0.00       0     39.2
  20   19:30   28.2    96    0.9   332      4.2    857.8     0.00       0     39.2
  20   19:40   28.2    97    0.5    64      4.2    858.0     0.00       0     39.1
  20   19:50   28.1    98    2.7   227      8.3    858.4     0.00       0     39.2
  20   20:00   29.2    98    5.0   219      9.6    858.5     0.00       0     39.2
  20   20:10   29.9    95    3.6   181      6.2    858.4     0.00       0     39.2
  20   20:20   30.3    91    2.6   171      5.0    858.4     0.00       0     39.2
  20   20:30   30.2    90    0.0     0      0.0    858.5     0.00       0     39.2
  20   20:40   29.9    90    0.2    27      1.8    858.5     0.00       0     39.2
  20   20:50   30.2    90    0.0     0      0.0    858.6     0.00       0     39.2
  20   21:00   30.5    89    0.0     0      0.0    858.6     0.00       0     39.2
  20   21:10   30.5    89    3.9   134     10.7    858.5     0.00       0     39.2
  20   21:20   31.7    84    5.6   122      8.6    858.4     0.00       0     39.2
  20   21:30   32.2    80    5.9   128      9.9    858.4     0.00       0     39.2
  20   21:40   33.0    76    5.5   148     11.0    858.5     0.00       0     39.2
  20   21:50   33.2    74    4.7   140      8.0    858.6     0.00       0     39.2
  20   22:00   33.1    74    4.4   149      8.1    858.8     0.00       0     39.2
  20   22:10   32.9    75    2.5   102      6.3    858.9     0.00       0     39.2
  20   22:20   31.6    78    5.7   110      8.3    859.0     0.00       0     39.2
  20   22:30   31.2    80    5.8   132      9.4    859.1     0.00       0     39.2
  20   22:40   31.4    80    5.5   165     10.9    859.1     0.00       0     39.2
  20   22:50   32.3    77    4.3   116      9.5    859.2     0.00       0     39.2
  20   23:00   32.7    74    1.3   104      5.3    859.4     0.00       0     39.2
  20   23:10   32.0    76    4.2   123      8.5    859.4     0.00       0     39.1
  20   23:20   30.7    78    1.5   173      4.6    859.5     0.00       0     39.1
  20   23:30   29.7    81    0.7    87      4.6    859.5     0.00       0     39.1
  20   23:40   29.7    83    0.4   106      3.7    859.6     0.00       0     39.1
  20   23:50   29.4    84    1.7   155      5.1    859.7     0.00       0     39.1
  21    0:00   28.8    84    2.9   168      6.8    859.8     0.00       0     39.1
  21    0:10   28.1    86    4.3   152      7.5    859.8     0.00       0     39.1
  21    0:20   27.4    87    0.0   127      1.3    859.9     0.00       0     39.1
  21    0:30   26.9    88    2.2   338      6.0    860.1     0.00       0     39.1
  21    0:40   26.8    89    0.1    12      2.7    860.2     0.00       0     39.0
  21    0:50   26.8    89    2.8    85      5.3    860.2     0.00       0     39.0
  21    1:00   26.4    90    3.0    82      9.9    860.5     0.00       0     39.0
  21    1:10   26.9    89    4.1   110     11.2    860.6     0.00       0     39.0
  21    1:20   26.6    90    2.1    87      4.7    860.8     0.00       0     39.0
  21    1:30   26.2    91    2.0   134      8.0    861.0     0.00       0     39.0
  21    1:40   26.4    90    5.6   137      8.8    861.1     0.00       0     38.9
  21    1:50   26.4    88    5.4   138     10.6    861.4     0.00       0     38.9
  21    2:00   25.8    89    0.0     0      0.0    861.7     0.00       0     38.9
  21    2:10   25.6    90    0.0     0      0.0    861.9     0.00       0     38.9
  21    2:20   25.4    90    0.0     0      0.0    862.1     0.00       0     38.9
  21    2:30   24.6    91    0.0     0      0.0    862.2     0.00       0     38.9
  21    2:40   24.2    92    0.7    37      3.4    862.3     0.00       0     38.9
  21    2:50   24.6    93    0.3     4      5.1    862.4     0.00       0     38.9
  21    3:00   24.8    94    2.2    58      5.2    862.5     0.00       0     38.8
  21    3:10   25.1    94    0.1    88      2.3    862.7     0.00       0     38.8
  21    3:20   24.8    94    0.1    90      3.4    862.7     0.00       0     38.8
  21    3:30   25.3    94    3.0    71      6.2    862.9     0.00       0     38.8
  21    3:40   26.6    91    2.4    88      5.6    862.9     0.00       0     38.8
  21    3:50   27.2    87    0.4   117      4.2    863.0     0.00       0     38.8
  21    4:00   27.5    84    1.0   317      6.7    863.2     0.00       0     38.7
  21    4:10   30.0    77    1.5   344      9.6    863.3     0.00       0     38.7
  21    4:20   29.7    74    0.6   268      2.8    863.4     0.00       0     38.7
  21    4:30   29.0    75    0.2   179      2.6    863.6     0.00       0     38.7
  21    4:40   27.9    76    1.2   189      7.8    863.6     0.00       0     38.7
  21    4:50   26.8    78    3.4   198      5.4    863.6     0.00       0     38.7
  21    5:00   26.2    80    2.1   178      3.8    863.8     0.00       0     38.7
  21    5:10   26.3    80    1.0   151      4.1    864.1     0.00       0     38.7
  21    5:20   27.3    79    2.2   113      7.2    864.2     0.00       0     38.6
  21    5:30   26.3    78    2.1   128      4.7    864.3     0.00       0     38.6
  21    5:40   26.2    80    1.2   310      6.2    864.6     0.00       0     38.6
  21    5:50   26.2    79    0.0     0      0.0    864.9     0.00       0     38.6
  21    6:00   26.1    80    0.4   225      4.2    865.1     0.00       0     38.5
  21    6:10   25.3    81    0.2   296      2.8    865.2     0.00       0     38.5
  21    6:20   25.1    83    0.0     0      0.0    865.4     0.00       0     38.5
  21    6:30   25.3    83    2.3   127      8.3    865.5     0.00       0     38.5
  21    6:40   26.0    79    2.4   132      5.4    865.7     0.00       0     38.5
  21    6:50   25.7    78    0.0     0      0.0    865.9     0.00       0     38.5
  21    7:00   25.4    79    3.6   157      8.6    866.1     0.00       1     38.4
  21    7:10   26.2    76    3.9   155      7.1    866.4     0.00       3     38.4
  21    7:20   25.4    77    8.3   153     11.3    866.5     0.00       8     38.4
  21    7:30   25.0    78    6.7   150      9.4    866.6     0.00      19     38.4
  21    7:40   25.6    78    5.1   139      8.6    867.0     0.00      29     38.3
  21    7:50   25.8    77    4.6   133      6.9    867.3     0.00      31     38.3
  21    8:00   26.8    75    5.3   118      7.5    867.5     0.00      46     38.3
  21    8:10   28.3    73    3.5    97      6.1    867.6     0.00     135     38.3
  21    8:20   30.3    72    1.5    94      5.0    867.8     0.00     161     38.2
  21    8:30   32.6    67    1.6   122      5.3    868.0     0.00     188     38.2
  21    8:40   35.0    63    2.8   139      6.9    868.2     0.00     214     38.2
  21    8:50   36.3    60    3.4   130      5.9    868.5     0.00     241     38.2
  21    9:00   37.4    56    0.0    99      2.0    868.7     0.00     268     38.2
  21    9:10   39.3    53    0.0     0      0.0    868.9     0.00     294     38.2
  21    9:20   42.2    46    1.8   177      7.5    869.2     0.00     323     38.2

Return to Blowing Sand Mountains graphs page.


Western Regional Climate Center,wrcc@dri.edu